| time (UTC) | temp F | wind direction | speed MPH | gust MPH | rain 1hr in | rain 24hr in | rain mn in | humidity % | barometer mb |
| 20260504151020 | 69 | 84 | 2.0 | 10.0 | 0.00 | 0.00 | 0.00 | 42 | 1014.4 |
| 20260504150521 | 69 | 234 | 3.0 | 10.0 | 0.00 | 0.00 | 0.00 | 44 | 1014.4 |
| 20260504141020 | 65 | 271 | 2.0 | 9.0 | 0.00 | 0.00 | 0.00 | 48 | 1014.5 |
| 20260504140521 | 65 | 281 | 4.0 | 9.0 | 0.00 | 0.00 | 0.00 | 48 | 1014.7 |
| 20260504130521 | 59 | 0 | 1.0 | 4.0 | 0.00 | 0.00 | 0.00 | 57 | 1014.8 |
| 20260504110520 | 46 | 0 | 0.0 | 0.0 | 0.00 | 0.00 | 0.00 | 84 | 1015.7 |
| 20260504100521 | 46 | 0 | 0.0 | 0.0 | 0.00 | 0.00 | 0.00 | 80 | 1015.5 |
| 20260504081538 | 47 | 0 | 0.0 | 0.0 | 0.00 | 0.00 | 0.00 | 83 | 1015.9 |
| 20260504081024 | 47 | 0 | 0.0 | 0.0 | 0.00 | 0.00 | 0.00 | 83 | 1015.8 |
| 20260504080520 | 47 | 0 | 0.0 | 0.0 | 0.00 | 0.00 | 0.00 | 83 | 1015.8 |
| 20260504050524 | 45 | 0 | 0.0 | 0.0 | 0.00 | 0.00 | 0.00 | 82 | 1016.1 |
| 20260504045520 | 45 | 0 | 0.0 | 0.0 | 0.00 | 0.00 | 0.00 | 82 | 1016.0 |
| 20260504045020 | 45 | 0 | 0.0 | 0.0 | 0.00 | 0.00 | 0.00 | 81 | 1016.0 |
| 20260504044541 | 45 | 0 | 0.0 | 0.0 | 0.00 | 0.00 | 0.00 | 81 | 1015.9 |
| 20260504044020 | 45 | 0 | 0.0 | 0.0 | 0.00 | 0.00 | 0.00 | 81 | 1016.0 |
| 20260504043520 | 45 | 0 | 0.0 | 0.0 | 0.00 | 0.00 | 0.00 | 81 | 1016.0 |
| 20260504043039 | 45 | 0 | 0.0 | 0.0 | 0.00 | 0.00 | 0.00 | 81 | 1016.1 |
| 20260504042519 | 45 | 0 | 0.0 | 0.0 | 0.00 | 0.00 | 0.00 | 81 | 1016.0 |
| 20260504042022 | 45 | 0 | 0.0 | 0.0 | 0.00 | 0.00 | 0.00 | 81 | 1015.9 |
| 20260504041538 | 44 | 0 | 0.0 | 0.0 | 0.00 | 0.00 | 0.00 | 81 | 1015.8 |
| 20260504041020 | 44 | 0 | 0.0 | 0.0 | 0.00 | 0.00 | 0.00 | 81 | 1015.8 |
| 20260504040520 | 44 | 0 | 0.0 | 0.0 | 0.00 | 0.00 | 0.00 | 80 | 1015.7 |
| 20260504040058 | 44 | 0 | 0.0 | 0.0 | 0.00 | 0.00 | 0.00 | 80 | 1015.8 |
| 20260504035521 | 44 | 0 | 0.0 | 0.0 | 0.00 | 0.00 | 0.00 | 80 | 1015.9 |
| 20260504035020 | 44 | 0 | 0.0 | 0.0 | 0.00 | 0.00 | 0.00 | 80 | 1015.9 |
| 20260504034543 | 44 | 0 | 0.0 | 0.0 | 0.00 | 0.00 | 0.00 | 80 | 1016.0 |
| 20260504034021 | 44 | 0 | 0.0 | 0.0 | 0.00 | 0.00 | 0.00 | 80 | 1016.1 |
| 20260504033520 | 44 | 0 | 0.0 | 0.0 | 0.00 | 0.00 | 0.00 | 80 | 1016.1 |
| 20260504033039 | 44 | 0 | 0.0 | 0.0 | 0.00 | 0.00 | 0.00 | 80 | 1016.0 |
| 20260504032522 | 44 | 0 | 0.0 | 0.0 | 0.00 | 0.00 | 0.00 | 80 | 1016.0 |
| 20260504032020 | 44 | 0 | 0.0 | 0.0 | 0.00 | 0.00 | 0.00 | 79 | 1016.0 |
| 20260504031539 | 44 | 0 | 0.0 | 0.0 | 0.00 | 0.00 | 0.00 | 79 | 1015.9 |
| 20260504031020 | 44 | 0 | 0.0 | 0.0 | 0.00 | 0.00 | 0.00 | 79 | 1015.9 |
| 20260504030523 | 44 | 0 | 0.0 | 0.0 | 0.00 | 0.00 | 0.00 | 79 | 1015.9 |
| 20260504030039 | 44 | 0 | 0.0 | 0.0 | 0.00 | 0.00 | 0.00 | 78 | 1015.9 |
| 20260504025523 | 44 | 0 | 0.0 | 0.0 | 0.00 | 0.00 | 0.00 | 78 | 1016.0 |
| 20260504025020 | 45 | 0 | 0.0 | 0.0 | 0.00 | 0.00 | 0.00 | 78 | 1016.0 |
| 20260504024534 | 45 | 0 | 0.0 | 0.0 | 0.00 | 0.00 | 0.00 | 78 | 1015.9 |
| 20260504024023 | 45 | 0 | 0.0 | 0.0 | 0.00 | 0.00 | 0.00 | 78 | 1015.9 |
| 20260504023520 | 45 | 0 | 0.0 | 0.0 | 0.00 | 0.00 | 0.00 | 77 | 1015.9 |
| 20260504023050 | 45 | 0 | 0.0 | 0.0 | 0.00 | 0.00 | 0.00 | 77 | 1015.8 |
| 20260504022523 | 45 | 0 | 0.0 | 0.0 | 0.00 | 0.00 | 0.00 | 77 | 1015.8 |
| 20260504022020 | 45 | 0 | 0.0 | 0.0 | 0.00 | 0.00 | 0.00 | 77 | 1015.8 |
| 20260504021540 | 45 | 0 | 0.0 | 0.0 | 0.00 | 0.00 | 0.00 | 77 | 1015.7 |
| 20260504021021 | 46 | 0 | 0.0 | 0.0 | 0.00 | 0.00 | 0.00 | 76 | 1015.6 |
| 20260504020521 | 46 | 0 | 0.0 | 0.0 | 0.00 | 0.00 | 0.00 | 76 | 1015.6 |
| 20260504020038 | 46 | 0 | 0.0 | 0.0 | 0.00 | 0.00 | 0.00 | 76 | 1015.6 |
| 20260504015521 | 46 | 0 | 0.0 | 0.0 | 0.00 | 0.00 | 0.00 | 75 | 1015.6 |
| 20260504015021 | 46 | 0 | 0.0 | 0.0 | 0.00 | 0.00 | 0.00 | 75 | 1015.5 |
| 20260504014550 | 46 | 0 | 0.0 | 0.0 | 0.00 | 0.00 | 0.00 | 74 | 1015.4 |
| 20260504014019 | 47 | 0 | 0.0 | 0.0 | 0.00 | 0.00 | 0.00 | 74 | 1015.4 |
| 20260504013517 | 47 | 0 | 0.0 | 0.0 | 0.00 | 0.00 | 0.00 | 73 | 1015.3 |
| 20260504013038 | 47 | 0 | 0.0 | 0.0 | 0.00 | 0.00 | 0.00 | 72 | 1015.3 |
| 20260504012520 | 48 | 0 | 0.0 | 0.0 | 0.00 | 0.00 | 0.00 | 72 | 1015.2 |
| 20260504012020 | 48 | 0 | 0.0 | 0.0 | 0.00 | 0.00 | 0.00 | 71 | 1015.2 |
| 20260504011543 | 48 | 0 | 0.0 | 0.0 | 0.00 | 0.00 | 0.00 | 71 | 1015.0 |
| 20260504011021 | 48 | 0 | 0.0 | 0.0 | 0.00 | 0.00 | 0.00 | 70 | 1014.9 |
| 20260504010518 | 49 | 0 | 0.0 | 0.0 | 0.00 | 0.00 | 0.00 | 68 | 1014.9 |
| 20260504010044 | 49 | 0 | 0.0 | 0.0 | 0.00 | 0.00 | 0.00 | 67 | 1015.1 |
| 20260504005520 | 50 | 0 | 0.0 | 0.0 | 0.00 | 0.00 | 0.00 | 65 | 1014.9 |
| 20260504005018 | 50 | 0 | 0.0 | 0.0 | 0.00 | 0.00 | 0.00 | 64 | 1015.0 |
| 20260504004544 | 50 | 0 | 0.0 | 0.0 | 0.00 | 0.00 | 0.00 | 64 | 1014.9 |
| 20260504004020 | 51 | 0 | 0.0 | 0.0 | 0.00 | 0.00 | 0.00 | 62 | 1014.9 |
| 20260504003522 | 51 | 0 | 0.0 | 1.0 | 0.00 | 0.00 | 0.00 | 60 | 1014.8 |
| 20260504003038 | 52 | 0 | 0.0 | 1.0 | 0.00 | 0.00 | 0.00 | 59 | 1014.7 |
| 20260504002519 | 52 | 0 | 0.0 | 0.0 | 0.00 | 0.00 | 0.00 | 58 | 1014.8 |
| 20260504002018 | 53 | 0 | 0.0 | 0.0 | 0.00 | 0.00 | 0.00 | 57 | 1014.8 |
| 20260504001551 | 53 | 0 | 0.0 | 0.0 | 0.00 | 0.00 | 0.00 | 55 | 1014.8 |
| 20260504001021 | 54 | 0 | 0.0 | 0.0 | 0.00 | 0.00 | 0.00 | 54 | 1014.8 |
| 20260504000517 | 54 | 0 | 0.0 | 0.0 | 0.00 | 0.00 | 0.00 | 53 | 1014.8 |
| 20260504000052 | 55 | 0 | 0.0 | 0.0 | 0.00 | 0.00 | 0.00 | 53 | 1014.7 |
| 20260503235520 | 56 | 0 | 0.0 | 0.0 | 0.00 | 0.00 | 0.00 | 51 | 1014.7 |
| 20260503235024 | 57 | 0 | 0.0 | 0.0 | 0.00 | 0.00 | 0.00 | 49 | 1014.6 |
| 20260503234540 | 57 | 0 | 0.0 | 0.0 | 0.00 | 0.00 | 0.00 | 47 | 1014.6 |
| 20260503234020 | 58 | 0 | 0.0 | 0.0 | 0.00 | 0.00 | 0.00 | 47 | 1014.6 |
| 20260503233520 | 58 | 0 | 0.0 | 0.0 | 0.00 | 0.00 | 0.00 | 46 | 1014.6 |
| 20260503233042 | 59 | 0 | 0.0 | 2.0 | 0.00 | 0.00 | 0.00 | 45 | 1014.5 |
| 20260503232521 | 60 | 0 | 0.0 | 2.0 | 0.00 | 0.00 | 0.00 | 42 | 1014.5 |
| 20260503232021 | 60 | 0 | 0.0 | 4.0 | 0.00 | 0.00 | 0.00 | 41 | 1014.4 |
| 20260503231540 | 61 | 0 | 1.0 | 4.0 | 0.00 | 0.00 | 0.00 | 40 | 1014.4 |
| 20260503231021 | 61 | 0 | 0.0 | 1.0 | 0.00 | 0.00 | 0.00 | 36 | 1014.4 |
| 20260503230521 | 62 | 0 | 0.0 | 1.0 | 0.00 | 0.00 | 0.00 | 34 | 1014.3 |
| 20260503230038 | 62 | 0 | 0.0 | 4.0 | 0.00 | 0.00 | 0.00 | 35 | 1014.4 |
| 20260503225522 | 63 | 0 | 1.0 | 4.0 | 0.00 | 0.00 | 0.00 | 34 | 1014.3 |
| 20260503225021 | 63 | 273 | 1.0 | 4.0 | 0.00 | 0.00 | 0.00 | 32 | 1014.3 |
| 20260503224541 | 63 | 225 | 1.0 | 5.0 | 0.00 | 0.00 | 0.00 | 35 | 1014.3 |
| 20260503224021 | 63 | 232 | 1.0 | 6.0 | 0.00 | 0.00 | 0.00 | 33 | 1014.4 |
| 20260503223524 | 64 | 276 | 2.0 | 6.0 | 0.00 | 0.00 | 0.00 | 33 | 1014.4 |
| 20260503223044 | 64 | 0 | 1.0 | 6.0 | 0.00 | 0.00 | 0.00 | 33 | 1014.4 |
| 20260503222519 | 64 | 259 | 1.0 | 10.0 | 0.00 | 0.00 | 0.00 | 33 | 1014.5 |
| 20260503222020 | 64 | 259 | 5.0 | 10.0 | 0.00 | 0.00 | 0.00 | 30 | 1014.4 |
| 20260503221544 | 64 | 230 | 2.0 | 10.0 | 0.00 | 0.00 | 0.00 | 31 | 1014.4 |
| 20260503221021 | 64 | 191 | 4.0 | 11.0 | 0.00 | 0.00 | 0.00 | 29 | 1014.4 |
| 20260503220524 | 64 | 242 | 4.0 | 11.0 | 0.00 | 0.00 | 0.00 | 32 | 1014.6 |
| 20260503220038 | 64 | 181 | 5.0 | 10.0 | 0.00 | 0.00 | 0.00 | 30 | 1014.6 |
| 20260503215521 | 64 | 237 | 3.0 | 10.0 | 0.00 | 0.00 | 0.00 | 34 | 1014.6 |
| 20260503215020 | 64 | 300 | 1.0 | 8.0 | 0.00 | 0.00 | 0.00 | 32 | 1014.6 |
| 20260503214538 | 64 | 236 | 0.0 | 9.0 | 0.00 | 0.00 | 0.00 | 34 | 1014.4 |
| 20260503214021 | 64 | 237 | 2.0 | 11.0 | 0.00 | 0.00 | 0.00 | 30 | 1014.6 |
| 20260503213521 | 64 | 301 | 3.0 | 11.0 | 0.00 | 0.00 | 0.00 | 34 | 1014.7 |
| 20260503213045 | 64 | 259 | 3.0 | 11.0 | 0.00 | 0.00 | 0.00 | 30 | 1014.7 |
| 20260503212521 | 64 | 190 | 3.0 | 11.0 | 0.00 | 0.00 | 0.00 | 33 | 1014.7 |
| 20260503212025 | 64 | 257 | 5.0 | 11.0 | 0.00 | 0.00 | 0.00 | 31 | 1014.6 |
| 20260503211544 | 64 | 273 | 4.0 | 11.0 | 0.00 | 0.00 | 0.00 | 33 | 1014.6 |
| 20260503211025 | 64 | 232 | 3.0 | 10.0 | 0.00 | 0.00 | 0.00 | 30 | 1014.5 |
| 20260503210524 | 64 | 256 | 3.0 | 10.0 | 0.00 | 0.00 | 0.00 | 33 | 1014.6 |
| 20260503210039 | 64 | 200 | 4.0 | 11.0 | 0.00 | 0.00 | 0.00 | 34 | 1014.5 |
| 20260503205522 | 63 | 266 | 4.0 | 11.0 | 0.00 | 0.00 | 0.00 | 33 | 1014.5 |
| 20260503205021 | 64 | 247 | 3.0 | 9.0 | 0.00 | 0.00 | 0.00 | 33 | 1014.6 |
| 20260503204558 | 64 | 267 | 1.0 | 11.0 | 0.00 | 0.00 | 0.00 | 34 | 1014.7 |
| 20260503204023 | 63 | 222 | 4.0 | 11.0 | 0.00 | 0.00 | 0.00 | 35 | 1014.7 |
| 20260503203523 | 63 | 252 | 6.0 | 11.0 | 0.00 | 0.00 | 0.00 | 34 | 1014.9 |
| 20260503203039 | 63 | 260 | 6.0 | 11.0 | 0.00 | 0.00 | 0.00 | 34 | 1014.9 |
| 20260503202517 | 64 | 244 | 5.0 | 13.0 | 0.00 | 0.00 | 0.00 | 33 | 1014.9 |
| 20260503202020 | 64 | 340 | 3.0 | 13.0 | 0.00 | 0.00 | 0.00 | 34 | 1014.8 |
| 20260503201534 | 64 | 275 | 4.0 | 12.0 | 0.00 | 0.00 | 0.00 | 34 | 1015.0 |
| 20260503201017 | 64 | 227 | 2.0 | 8.0 | 0.00 | 0.00 | 0.00 | 34 | 1014.9 |
| 20260503200517 | 63 | 230 | 3.0 | 15.0 | 0.00 | 0.00 | 0.00 | 32 | 1015.1 |
| 20260503200035 | 63 | 270 | 1.0 | 15.0 | 0.00 | 0.00 | 0.00 | 37 | 1015.3 |
| 20260503195521 | 63 | 215 | 5.0 | 15.0 | 0.00 | 0.00 | 0.00 | 34 | 1015.4 |
| 20260503195022 | 63 | 65 | 3.0 | 11.0 | 0.00 | 0.00 | 0.00 | 35 | 1015.5 |
| 20260503194539 | 62 | 238 | 4.0 | 11.0 | 0.00 | 0.00 | 0.00 | 34 | 1015.6 |
| 20260503194020 | 62 | 181 | 2.0 | 6.0 | 0.00 | 0.00 | 0.00 | 35 | 1015.4 |
| 20260503193523 | 61 | 166 | 1.0 | 8.0 | 0.00 | 0.00 | 0.00 | 36 | 1015.7 |
| 20260503193043 | 61 | 45 | 3.0 | 14.0 | 0.00 | 0.00 | 0.00 | 39 | 1015.7 |
| 20260503192520 | 62 | 235 | 2.0 | 14.0 | 0.00 | 0.00 | 0.00 | 35 | 1015.7 |
| 20260503192019 | 62 | 239 | 4.0 | 12.0 | 0.00 | 0.00 | 0.00 | 40 | 1016.0 |
| 20260503191538 | 62 | 212 | 2.0 | 9.0 | 0.00 | 0.00 | 0.00 | 33 | 1015.9 |
| 20260503191023 | 62 | 191 | 4.0 | 12.0 | 0.00 | 0.00 | 0.00 | 35 | 1016.0 |
| 20260503190520 | 61 | 266 | 5.0 | 13.0 | 0.00 | 0.00 | 0.00 | 34 | 1016.2 |
| 20260503190039 | 61 | 313 | 2.0 | 13.0 | 0.00 | 0.00 | 0.00 | 36 | 1016.1 |
| 20260503185519 | 62 | 298 | 6.0 | 13.0 | 0.00 | 0.00 | 0.00 | 33 | 1016.3 |
| 20260503185019 | 62 | 209 | 3.0 | 10.0 | 0.00 | 0.00 | 0.00 | 39 | 1016.2 |
| 20260503184545 | 62 | 253 | 2.0 | 10.0 | 0.00 | 0.00 | 0.00 | 40 | 1016.2 |
| 20260503184022 | 61 | 267 | 5.0 | 10.0 | 0.00 | 0.00 | 0.00 | 36 | 1016.4 |
| 20260503183521 | 61 | 237 | 3.0 | 15.0 | 0.00 | 0.00 | 0.00 | 35 | 1016.3 |
| 20260503183053 | 61 | 207 | 1.0 | 15.0 | 0.00 | 0.00 | 0.00 | 37 | 1016.3 |
| 20260503182516 | 61 | 204 | 3.0 | 15.0 | 0.00 | 0.00 | 0.00 | 35 | 1016.5 |
| 20260503182021 | 61 | 205 | 3.0 | 11.0 | 0.00 | 0.00 | 0.00 | 38 | 1016.5 |
| 20260503181554 | 60 | 217 | 4.0 | 11.0 | 0.00 | 0.00 | 0.00 | 38 | 1016.5 |
| 20260503181020 | 61 | 167 | 3.0 | 9.0 | 0.00 | 0.00 | 0.00 | 38 | 1016.7 |
| 20260503180521 | 60 | 266 | 3.0 | 20.0 | 0.00 | 0.00 | 0.00 | 40 | 1016.7 |
| 20260503180041 | 61 | 240 | 1.0 | 20.0 | 0.00 | 0.00 | 0.00 | 41 | 1016.7 |
| 20260503175520 | 60 | 215 | 4.0 | 18.0 | 0.00 | 0.00 | 0.00 | 37 | 1016.7 |
| 20260503175020 | 60 | 218 | 7.0 | 18.0 | 0.00 | 0.00 | 0.00 | 40 | 1016.9 |
| 20260503174536 | 59 | 344 | 4.0 | 11.0 | 0.00 | 0.00 | 0.00 | 37 | 1016.8 |
| 20260503174019 | 58 | 273 | 4.0 | 11.0 | 0.00 | 0.00 | 0.00 | 39 | 1016.8 |
| 20260503173519 | 58 | 215 | 3.0 | 13.0 | 0.00 | 0.00 | 0.00 | 44 | 1016.9 |
| 20260503173034 | 59 | 243 | 5.0 | 13.0 | 0.00 | 0.00 | 0.00 | 40 | 1017.1 |
| 20260503172522 | 59 | 183 | 7.0 | 13.0 | 0.00 | 0.00 | 0.00 | 41 | 1017.1 |
| 20260503172020 | 58 | 253 | 5.0 | 10.0 | 0.00 | 0.00 | 0.00 | 43 | 1017.1 |
| 20260503171539 | 57 | 234 | 3.0 | 13.0 | 0.00 | 0.00 | 0.00 | 40 | 1017.1 |
| 20260503171020 | 57 | 169 | 3.0 | 13.0 | 0.00 | 0.00 | 0.00 | 42 | 1017.0 |
| 20260503170517 | 57 | 227 | 5.0 | 13.0 | 0.00 | 0.00 | 0.00 | 42 | 1017.2 |